createdAt,value
2023-03-10T00:00:47.644Z,97951.38
2023-03-10T00:03:14.451Z,97956.91
2023-03-10T00:05:41.292Z,97956.50
2023-03-10T00:08:07.974Z,97952.13
2023-03-10T00:10:34.955Z,97950.50
2023-03-10T00:13:01.833Z,97948.94
2023-03-10T00:15:28.730Z,97948.94
2023-03-10T00:17:55.877Z,97948.13
2023-03-10T00:20:23.767Z,97942.56
2023-03-10T00:22:50.611Z,97944.16
2023-03-10T00:25:17.625Z,97936.22
2023-03-10T00:27:44.451Z,97939.44
2023-03-10T00:30:12.001Z,97938.19
2023-03-10T00:32:38.813Z,97928.31
2023-03-10T00:35:06.574Z,97933.06
2023-03-10T00:37:36.761Z,97927.94
2023-03-10T00:40:05.470Z,97936.22
2023-03-10T00:42:32.174Z,97937.78
2023-03-10T00:44:58.904Z,97934.66
2023-03-10T00:47:25.663Z,97933.84
2023-03-10T00:49:52.693Z,97927.44
2023-03-10T00:52:19.542Z,97935.41
2023-03-10T00:54:46.415Z,97930.69
2023-03-10T00:57:13.137Z,97928.25
2023-03-10T00:59:50.053Z,97923.53
2023-03-10T01:02:18.922Z,97926.63
2023-03-10T01:04:46.124Z,97932.97
2023-03-10T01:07:12.897Z,97919.91
2023-03-10T01:09:39.634Z,97932.56
2023-03-10T01:12:06.933Z,97939.25
2023-03-10T01:14:33.587Z,97936.47
2023-03-10T01:17:00.464Z,97939.25
2023-03-10T01:19:27.149Z,97928.19
2023-03-10T01:21:53.815Z,97936.09
2023-03-10T01:24:20.562Z,97932.16
2023-03-10T01:26:47.336Z,97933.31
2023-03-10T01:29:13.991Z,97925.03
2023-03-10T01:31:42.091Z,97931.72
2023-03-10T01:34:09.163Z,97923.00
2023-03-10T01:36:36.257Z,97918.28
2023-03-10T01:39:02.993Z,97919.06
2023-03-10T01:41:29.846Z,97906.38
2023-03-10T01:43:58.596Z,97908.78
2023-03-10T01:46:34.249Z,97902.78
2023-03-10T01:49:11.933Z,97906.75
2023-03-10T01:51:41.375Z,97909.13
2023-03-10T01:54:14.768Z,97896.50
2023-03-10T01:56:42.430Z,97900.44
2023-03-10T01:59:10.185Z,97901.22
2023-03-10T02:01:37.490Z,97901.22
2023-03-10T02:04:23.504Z,97901.22
2023-03-10T02:06:52.229Z,97894.09
2023-03-10T02:09:21.068Z,97901.22
2023-03-10T02:11:49.464Z,97885.38
2023-03-10T02:14:17.796Z,97878.25
2023-03-10T02:16:45.126Z,97875.06
2023-03-10T02:19:31.232Z,97878.66
2023-03-10T02:22:05.294Z,97875.06
2023-03-10T02:24:47.300Z,97866.38
2023-03-10T02:27:24.727Z,97864.78
2023-03-10T02:30:06.845Z,97849.78
2023-03-10T02:32:39.887Z,97857.28
2023-03-10T02:35:07.032Z,97858.44
2023-03-10T02:37:39.411Z,97850.53
2023-03-10T02:40:42.518Z,97842.66
2023-03-10T02:43:30.633Z,97839.47
2023-03-10T02:46:18.626Z,97840.25
2023-03-10T02:48:46.296Z,97843.41
2023-03-10T02:51:26.261Z,97846.16
2023-03-10T02:53:54.507Z,97837.06
2023-03-10T02:56:22.842Z,97834.69
2023-03-10T02:58:50.442Z,97828.78
2023-03-10T03:01:17.166Z,97826.41
2023-03-10T03:03:44.322Z,97823.63
2023-03-10T03:06:12.810Z,97819.28
2023-03-10T03:08:39.773Z,97825.59
2023-03-10T03:11:09.026Z,97816.50
2023-03-10T03:13:36.238Z,97819.28
2023-03-10T03:16:06.622Z,97809.38
2023-03-10T03:18:33.622Z,97801.06
2023-03-10T03:21:08.597Z,97804.59
2023-03-10T03:23:35.372Z,97797.50
2023-03-10T03:26:02.577Z,97799.06
2023-03-10T03:28:32.321Z,97801.84
2023-03-10T03:30:59.349Z,97803.03
2023-03-10T03:33:26.314Z,97801.44
2023-03-10T03:35:53.585Z,97798.66
2023-03-10T03:38:21.113Z,97796.69
2023-03-10T03:40:48.574Z,97794.34
2023-03-10T03:43:17.859Z,97795.91
2023-03-10T03:45:46.808Z,97794.34
2023-03-10T03:48:14.784Z,97789.97
2023-03-10T03:50:42.351Z,97789.16
2023-03-10T03:53:18.986Z,97795.09
2023-03-10T03:55:45.918Z,97790.31
2023-03-10T03:58:12.697Z,97784.03
2023-03-10T04:00:40.189Z,97782.44
2023-03-10T04:03:09.623Z,97777.69
2023-03-10T04:05:37.450Z,97778.50
2023-03-10T04:08:05.404Z,97772.13
2023-03-10T04:10:32.223Z,97776.91
2023-03-10T04:13:00.475Z,97777.66
2023-03-10T04:15:27.857Z,97780.81
2023-03-10T04:17:54.775Z,97778.88
2023-03-10T04:20:21.651Z,97776.91
2023-03-10T04:22:51.861Z,97776.91
2023-03-10T04:25:22.216Z,97774.88
2023-03-10T04:27:49.876Z,97776.84
2023-03-10T04:30:17.506Z,97774.50
2023-03-10T04:32:49.330Z,97766.59
2023-03-10T04:35:17.705Z,97765.00
2023-03-10T04:37:44.951Z,97764.22
2023-03-10T04:40:13.870Z,97768.94
2023-03-10T04:42:42.187Z,97763.44
2023-03-10T04:45:10.083Z,97768.94
2023-03-10T04:47:55.150Z,97761.03
2023-03-10T04:50:21.927Z,97760.22
2023-03-10T04:52:50.225Z,97762.97
2023-03-10T04:55:19.387Z,97754.69
2023-03-10T04:57:46.315Z,97755.88
2023-03-10T05:00:13.565Z,97745.63
2023-03-10T05:02:41.422Z,97752.72
2023-03-10T05:05:09.477Z,97761.81
2023-03-10T05:07:39.392Z,97744.44
2023-03-10T05:10:07.269Z,97749.16
2023-03-10T05:12:35.329Z,97758.66
2023-03-10T05:15:02.095Z,97753.13
2023-03-10T05:17:29.480Z,97761.81
2023-03-10T05:19:59.541Z,97757.47
2023-03-10T05:22:26.473Z,97772.03
2023-03-10T05:24:53.241Z,97767.31
2023-03-10T05:27:22.000Z,97762.56
2023-03-10T05:29:49.484Z,97763.75
2023-03-10T05:32:20.675Z,97770.88
2023-03-10T05:34:48.467Z,97768.09
2023-03-10T05:37:15.722Z,97768.91
2023-03-10T05:39:43.894Z,97769.72
2023-03-10T05:42:15.613Z,97768.50
2023-03-10T05:44:42.802Z,97760.22
2023-03-10T05:47:10.420Z,97760.22
2023-03-10T05:49:38.713Z,97773.63
2023-03-10T05:52:07.132Z,97774.03
2023-03-10T05:54:34.176Z,97776.00
2023-03-10T05:57:00.922Z,97778.34
2023-03-10T05:59:29.241Z,97778.75
2023-03-10T06:01:56.036Z,97776.00
2023-03-10T06:04:22.946Z,97788.22
2023-03-10T06:06:49.704Z,97786.63
2023-03-10T06:09:16.534Z,97777.25
2023-03-10T06:11:43.433Z,97776.84
2023-03-10T06:14:10.177Z,97779.22
2023-03-10T06:16:37.050Z,97778.81
2023-03-10T06:19:03.662Z,97782.31
2023-03-10T06:21:30.809Z,97778.34
2023-03-10T06:23:57.753Z,97779.50
2023-03-10T06:26:24.703Z,97773.56
2023-03-10T06:29:09.989Z,97781.47
2023-03-10T06:31:36.638Z,97783.88
2023-03-10T06:34:04.622Z,97789.41
2023-03-10T06:36:32.586Z,97792.53
2023-03-10T06:38:59.512Z,97791.72
2023-03-10T06:41:27.957Z,97786.94
2023-03-10T06:43:55.108Z,97783.38
2023-03-10T06:46:21.929Z,97788.91
2023-03-10T06:48:49.934Z,97781.03
2023-03-10T06:51:19.117Z,97772.72
2023-03-10T06:53:47.205Z,97783.78
2023-03-10T06:56:17.393Z,97781.38
2023-03-10T06:58:45.200Z,97781.38
2023-03-10T07:01:25.550Z,97780.63
2023-03-10T07:03:53.758Z,97772.69
2023-03-10T07:06:21.132Z,97773.47
2023-03-10T07:08:48.195Z,97777.41
2023-03-10T07:11:15.999Z,97777.41
2023-03-10T07:13:42.836Z,97788.47
2023-03-10T07:16:09.679Z,97782.53
2023-03-10T07:18:36.328Z,97776.63
2023-03-10T07:21:09.758Z,97779.75
2023-03-10T07:23:39.688Z,97778.16
2023-03-10T07:26:15.651Z,97778.59
2023-03-10T07:28:42.769Z,97780.56
2023-03-10T07:31:12.613Z,97780.56
2023-03-10T07:33:39.928Z,97784.13
2023-03-10T07:36:09.434Z,97789.22
2023-03-10T07:38:36.168Z,97780.91
2023-03-10T07:41:10.220Z,97782.91
2023-03-10T07:43:37.531Z,97795.53
2023-03-10T07:46:09.323Z,97793.16
2023-03-10T07:48:54.914Z,97794.75
2023-03-10T07:51:21.931Z,97805.78
2023-03-10T07:53:48.801Z,97811.31
2023-03-10T07:56:15.939Z,97811.31
2023-03-10T07:58:42.718Z,97815.28
2023-03-10T08:01:15.111Z,97811.31
2023-03-10T08:03:41.876Z,97812.13
2023-03-10T08:06:08.910Z,97822.38
2023-03-10T08:08:35.731Z,97814.47
2023-03-10T08:11:05.063Z,97814.94
2023-03-10T08:13:32.323Z,97807.84
2023-03-10T08:16:01.178Z,97812.78
2023-03-10T08:18:29.615Z,97815.25
2023-03-10T08:21:06.920Z,97815.38
2023-03-10T08:23:34.636Z,97814.25
2023-03-10T08:26:03.159Z,97817.06
2023-03-10T08:28:30.758Z,97818.75
2023-03-10T08:31:04.755Z,97820.38
2023-03-10T08:33:33.245Z,97811.44
2023-03-10T08:36:12.709Z,97811.97
2023-03-10T08:38:40.288Z,97804.84
2023-03-10T08:41:20.846Z,97805.59
2023-03-10T08:43:49.378Z,97807.19
2023-03-10T08:46:17.118Z,97811.91
2023-03-10T08:48:44.012Z,97803.66
2023-03-10T08:51:14.452Z,97802.13
2023-03-10T08:53:43.795Z,97808.09
2023-03-10T08:56:10.490Z,97811.31
2023-03-10T08:58:37.173Z,97808.28
2023-03-10T09:01:04.419Z,97813.88
2023-03-10T09:03:31.998Z,97807.59
2023-03-10T09:05:59.001Z,97806.00
2023-03-10T09:08:27.548Z,97804.41
2023-03-10T09:10:54.974Z,97813.56
2023-03-10T09:13:22.279Z,97799.72
2023-03-10T09:15:50.581Z,97800.50
2023-03-10T09:18:17.530Z,97800.88
2023-03-10T09:20:45.371Z,97798.91
2023-03-10T09:23:14.086Z,97802.50
2023-03-10T09:25:41.271Z,97798.91
2023-03-10T09:28:09.705Z,97794.16
2023-03-10T09:30:38.326Z,97798.91
2023-03-10T09:33:07.677Z,97799.72
2023-03-10T09:35:35.949Z,97797.34
2023-03-10T09:38:04.131Z,97788.66
2023-03-10T09:40:32.890Z,97793.78
2023-03-10T09:43:07.325Z,97791.00
2023-03-10T09:45:53.254Z,97798.94
2023-03-10T09:48:25.961Z,97798.94
2023-03-10T09:50:56.511Z,97802.91
2023-03-10T09:53:43.117Z,97805.28
2023-03-10T09:56:18.917Z,97808.47
2023-03-10T09:58:48.277Z,97806.88
2023-03-10T10:01:18.586Z,97812.44
2023-03-10T10:03:54.132Z,97807.66
2023-03-10T10:06:32.503Z,97811.63
2023-03-10T10:09:05.339Z,97812.03
2023-03-10T10:11:33.331Z,97803.72
2023-03-10T10:14:31.314Z,97813.22
2023-03-10T10:17:09.072Z,97817.97
2023-03-10T10:19:39.490Z,97817.63
2023-03-10T10:22:27.383Z,97819.19
2023-03-10T10:25:08.993Z,97830.31
2023-03-10T10:27:40.741Z,97828.31
2023-03-10T10:30:46.305Z,97823.56
2023-03-10T10:33:15.051Z,97829.50
2023-03-10T10:36:02.515Z,97828.31
2023-03-10T10:38:31.047Z,97827.53
2023-03-10T10:41:07.674Z,97832.69
2023-03-10T10:43:43.513Z,97826.75
2023-03-10T10:46:12.458Z,97833.09
2023-03-10T10:49:02.429Z,97824.38
2023-03-10T10:51:35.994Z,97819.59
2023-03-10T10:54:21.847Z,97825.16
2023-03-10T10:56:53.548Z,97820.41
2023-03-10T10:59:22.794Z,97817.22
2023-03-10T11:02:04.366Z,97810.13
2023-03-10T11:04:46.465Z,97809.69
2023-03-10T11:07:23.989Z,97808.50
2023-03-10T11:09:51.124Z,97802.19
2023-03-10T11:12:22.077Z,97804.59
2023-03-10T11:14:49.810Z,97808.13
2023-03-10T11:17:20.585Z,97808.56
2023-03-10T11:19:50.321Z,97816.06
2023-03-10T11:22:26.486Z,97819.25
2023-03-10T11:25:10.675Z,97824.38
2023-03-10T11:27:42.989Z,97830.75
2023-03-10T11:30:13.494Z,97829.94
2023-03-10T11:32:49.086Z,97829.16
2023-03-10T11:35:24.332Z,97826.75
2023-03-10T11:38:00.607Z,97826.34
2023-03-10T11:40:48.079Z,97821.22
2023-03-10T11:43:27.719Z,97806.50
2023-03-10T11:45:56.726Z,97808.53
2023-03-10T11:48:47.881Z,97801.38
2023-03-10T11:51:34.849Z,97807.72
2023-03-10T11:54:05.507Z,97805.75
2023-03-10T11:56:32.222Z,97788.28
2023-03-10T11:59:04.126Z,97790.25
2023-03-10T12:01:38.369Z,97800.97
2023-03-10T12:04:13.808Z,97807.69
2023-03-10T12:06:54.980Z,97807.69
2023-03-10T12:09:50.746Z,97809.69
2023-03-10T12:12:26.788Z,97817.63
2023-03-10T12:14:55.178Z,97805.72
2023-03-10T12:17:23.896Z,97798.97
2023-03-10T12:20:16.868Z,97809.28
2023-03-10T12:22:53.390Z,97816.41
2023-03-10T12:25:29.563Z,97824.38
2023-03-10T12:28:17.376Z,97834.31
2023-03-10T12:30:48.758Z,97836.28
2023-03-10T12:33:30.673Z,97834.31
2023-03-10T12:36:03.424Z,97837.91
2023-03-10T12:38:42.907Z,97841.88
2023-03-10T12:41:10.138Z,97842.25
2023-03-10T12:43:48.860Z,97844.63
2023-03-10T12:46:44.175Z,97855.38
2023-03-10T12:49:33.481Z,97853.75
2023-03-10T12:52:22.502Z,97854.16
2023-03-10T12:55:21.996Z,97871.63
2023-03-10T12:57:51.681Z,97877.19
2023-03-10T13:00:36.511Z,97893.47
2023-03-10T13:03:30.563Z,97890.28
2023-03-10T13:06:07.039Z,97882.34
2023-03-10T13:08:39.501Z,97871.63
2023-03-10T13:11:48.938Z,97888.31
2023-03-10T13:14:20.016Z,97888.69
2023-03-10T13:16:58.024Z,97896.63
2023-03-10T13:19:30.904Z,97891.50
2023-03-10T13:21:58.292Z,97888.69
2023-03-10T13:24:29.574Z,97893.47
2023-03-10T13:27:06.778Z,97899.81
2023-03-10T13:29:34.130Z,97900.63
2023-03-10T13:32:00.885Z,97918.84
2023-03-10T13:34:30.081Z,97932.31
2023-03-10T13:37:08.106Z,97943.06
2023-03-10T13:39:34.766Z,97945.84
2023-03-10T13:42:03.593Z,97953.75
2023-03-10T13:44:38.826Z,97968.03
2023-03-10T13:47:14.094Z,97978.38
2023-03-10T13:49:45.451Z,97985.88
2023-03-10T13:52:19.463Z,97991.84
2023-03-10T13:54:46.227Z,98000.22
2023-03-10T13:57:32.890Z,98015.69
2023-03-10T14:00:00.904Z,98014.44
2023-03-10T14:02:37.354Z,98028.75
2023-03-10T14:05:06.901Z,98033.91
2023-03-10T14:07:37.529Z,98022.81
2023-03-10T14:10:08.821Z,98036.66
2023-03-10T14:12:43.441Z,98038.69
2023-03-10T14:15:19.380Z,98042.66
2023-03-10T14:18:06.320Z,98045.88
2023-03-10T14:20:46.891Z,98037.97
2023-03-10T14:23:19.662Z,98043.91
2023-03-10T14:25:52.890Z,98042.31
2023-03-10T14:28:25.051Z,98049.84
2023-03-10T14:30:52.192Z,98057.78
2023-03-10T14:33:19.541Z,98076.00
2023-03-10T14:35:47.117Z,98068.06
2023-03-10T14:38:14.108Z,98069.66
2023-03-10T14:40:46.163Z,98066.50
2023-03-10T14:43:27.325Z,98068.06
2023-03-10T14:45:56.572Z,98068.44
2023-03-10T14:48:25.215Z,98074.41
2023-03-10T14:50:53.395Z,98085.53
2023-03-10T14:53:24.679Z,98083.53
2023-03-10T14:55:54.579Z,98080.75
2023-03-10T14:58:24.925Z,98083.13
2023-03-10T15:00:52.148Z,98085.50
2023-03-10T15:03:18.875Z,98081.13
2023-03-10T15:05:49.151Z,98091.03
2023-03-10T15:08:17.217Z,98098.97
2023-03-10T15:10:48.586Z,98096.63
2023-03-10T15:13:18.242Z,98098.63
2023-03-10T15:15:47.137Z,98099.00
2023-03-10T15:18:17.275Z,98098.19
2023-03-10T15:20:44.407Z,98112.09
2023-03-10T15:23:14.577Z,98142.63
2023-03-10T15:25:43.712Z,98176.41
2023-03-10T15:28:12.048Z,98201.41
2023-03-10T15:30:38.704Z,98231.56
2023-03-10T15:33:05.559Z,98261.75
2023-03-10T15:35:32.658Z,98297.84
2023-03-10T15:37:59.409Z,98339.53
2023-03-10T15:40:28.761Z,98370.50
2023-03-10T15:42:59.828Z,98404.56
2023-03-10T15:45:28.899Z,98433.22
2023-03-10T15:47:56.525Z,98459.38
2023-03-10T15:50:23.645Z,98471.28
2023-03-10T15:52:53.559Z,98513.34
2023-03-10T15:55:20.388Z,98528.84
2023-03-10T15:57:50.222Z,98556.63
2023-03-10T16:00:19.078Z,98581.97
2023-03-10T16:02:47.055Z,98605.28
2023-03-10T16:05:14.596Z,98619.69
2023-03-10T16:07:41.579Z,98629.28
2023-03-10T16:10:17.661Z,98642.84
2023-03-10T16:12:44.774Z,98673.91
2023-03-10T16:15:12.923Z,98695.44
2023-03-10T16:17:40.269Z,98722.38
2023-03-10T16:20:12.145Z,98752.47
2023-03-10T16:22:41.093Z,98736.94
2023-03-10T16:25:12.381Z,98787.03
2023-03-10T16:27:39.036Z,98809.25
2023-03-10T16:30:06.693Z,98833.81
2023-03-10T16:32:33.843Z,98862.84
2023-03-10T16:35:00.766Z,98868.31
2023-03-10T16:37:28.931Z,98904.78
2023-03-10T16:39:56.480Z,98900.03
2023-03-10T16:42:24.288Z,98910.31
2023-03-10T16:45:06.112Z,98925.44
2023-03-10T16:47:33.410Z,98942.84
2023-03-10T16:50:00.318Z,98948.50
2023-03-10T16:52:27.084Z,98973.84
2023-03-10T16:54:58.794Z,98974.72
2023-03-10T16:57:25.567Z,98999.84
2023-03-10T16:59:52.162Z,99008.31
2023-03-10T17:02:18.913Z,99017.22
2023-03-10T17:04:45.942Z,99029.88
2023-03-10T17:07:12.623Z,99046.72
2023-03-10T17:09:39.332Z,99057.47
2023-03-10T17:12:07.030Z,99064.63
2023-03-10T17:14:33.783Z,99079.28
2023-03-10T17:17:01.482Z,99086.81
2023-03-10T17:19:31.040Z,99120.06
2023-03-10T17:21:58.323Z,99126.53
2023-03-10T17:24:26.232Z,99133.53
2023-03-10T17:26:53.852Z,99136.03
2023-03-10T17:29:20.969Z,99137.59
2023-03-10T17:31:50.418Z,99154.75
2023-03-10T17:34:18.841Z,99156.50
2023-03-10T17:36:46.686Z,99160.84
2023-03-10T17:39:19.544Z,99157.97
2023-03-10T17:41:46.817Z,99176.38
2023-03-10T17:44:13.971Z,99175.50
2023-03-10T17:46:41.866Z,99201.56
2023-03-10T17:49:11.489Z,99197.63
2023-03-10T17:51:39.623Z,99221.00
2023-03-10T17:54:07.436Z,99223.28
2023-03-10T17:56:34.304Z,99251.47
2023-03-10T17:59:00.993Z,99262.59
2023-03-10T18:01:29.473Z,99265.72
2023-03-10T18:03:57.697Z,99283.06
2023-03-10T18:06:30.459Z,99285.84
2023-03-10T18:08:58.974Z,99297.69
2023-03-10T18:11:27.138Z,99296.50
2023-03-10T18:13:54.274Z,99307.47
2023-03-10T18:16:24.852Z,99318.50
2023-03-10T18:18:52.344Z,99318.59
2023-03-10T18:21:20.183Z,99316.97
2023-03-10T18:23:48.045Z,99321.72
2023-03-10T18:26:18.300Z,99318.84
2023-03-10T18:28:45.459Z,99314.47
2023-03-10T18:31:30.450Z,99319.75
2023-03-10T18:33:57.678Z,99331.16
2023-03-10T18:36:25.283Z,99338.31
2023-03-10T18:38:53.090Z,99337.59
2023-03-10T18:41:24.479Z,99349.88
2023-03-10T18:43:52.229Z,99365.31
2023-03-10T18:46:19.671Z,99365.75
2023-03-10T18:48:46.407Z,99363.78
2023-03-10T18:51:13.729Z,99364.59
2023-03-10T18:53:40.739Z,99376.44
2023-03-10T18:56:08.013Z,99364.06
2023-03-10T18:58:35.205Z,99373.91
2023-03-10T19:01:02.132Z,99388.19
2023-03-10T19:03:30.131Z,99398.47
2023-03-10T19:05:57.689Z,99402.41
2023-03-10T19:08:27.029Z,99404.41
2023-03-10T19:10:58.868Z,99407.09
2023-03-10T19:13:27.549Z,99418.22
2023-03-10T19:15:55.068Z,99419.03
2023-03-10T19:18:22.766Z,99426.00
2023-03-10T19:20:50.879Z,99434.78
2023-03-10T19:23:18.105Z,99434.06
2023-03-10T19:25:44.919Z,99448.78
2023-03-10T19:28:11.751Z,99462.66
2023-03-10T19:30:42.644Z,99467.41
2023-03-10T19:33:10.892Z,99476.84
2023-03-10T19:35:38.431Z,99487.69
2023-03-10T19:38:06.065Z,99470.47
2023-03-10T19:40:33.374Z,99486.88
2023-03-10T19:43:17.833Z,99487.13
2023-03-10T19:45:44.529Z,99499.41
2023-03-10T19:48:11.131Z,99502.88
2023-03-10T19:50:37.762Z,99512.03
2023-03-10T19:53:04.610Z,99520.38
2023-03-10T19:55:31.273Z,99536.22
2023-03-10T19:57:57.912Z,99536.22
2023-03-10T20:00:30.995Z,99548.16
2023-03-10T20:02:58.696Z,99548.38
2023-03-10T20:05:26.864Z,99549.19
2023-03-10T20:07:53.758Z,99551.97
2023-03-10T20:10:20.495Z,99553.56
2023-03-10T20:12:48.502Z,99564.00
2023-03-10T20:15:15.678Z,99565.50
2023-03-10T20:17:42.524Z,99562.28
2023-03-10T20:20:11.452Z,99574.91
2023-03-10T20:22:41.040Z,99577.44
2023-03-10T20:25:09.417Z,99595.50
2023-03-10T20:27:37.056Z,99594.81
2023-03-10T20:30:16.013Z,99605.47
2023-03-10T20:32:43.081Z,99607.78
2023-03-10T20:35:10.623Z,99614.03
2023-03-10T20:37:38.654Z,99603.19
2023-03-10T20:40:06.682Z,99612.69
2023-03-10T20:42:34.059Z,99620.53
2023-03-10T20:45:01.003Z,99625.91
2023-03-10T20:47:27.989Z,99618.97
2023-03-10T20:49:55.533Z,99617.78
2023-03-10T20:52:22.348Z,99634.44
2023-03-10T20:54:49.449Z,99626.94
2023-03-10T20:57:16.352Z,99628.03
2023-03-10T20:59:43.101Z,99637.44
2023-03-10T21:02:15.379Z,99640.84
2023-03-10T21:04:42.374Z,99632.06
2023-03-10T21:07:09.981Z,99634.94
2023-03-10T21:09:36.800Z,99629.50
2023-03-10T21:12:03.707Z,99643.44
2023-03-10T21:14:30.568Z,99639.84
2023-03-10T21:16:59.901Z,99643.88
2023-03-10T21:19:27.898Z,99648.03
2023-03-10T21:21:54.995Z,99638.84
2023-03-10T21:24:22.193Z,99653.91
2023-03-10T21:26:49.992Z,99650.22
2023-03-10T21:29:16.595Z,99657.06
2023-03-10T21:31:43.328Z,99673.13
2023-03-10T21:34:09.968Z,99678.47
2023-03-10T21:36:36.614Z,99688.88
2023-03-10T21:39:03.622Z,99691.16
2023-03-10T21:41:30.636Z,99697.44
2023-03-10T21:43:59.745Z,99705.97
2023-03-10T21:46:27.033Z,99700.91
2023-03-10T21:48:54.632Z,99700.63
2023-03-10T21:51:23.238Z,99715.78
2023-03-10T21:53:51.095Z,99719.03
2023-03-10T21:56:18.076Z,99723.28
2023-03-10T21:58:45.968Z,99724.53
2023-03-10T22:01:14.873Z,99731.72
2023-03-10T22:03:43.000Z,99725.75
2023-03-10T22:06:10.412Z,99741.91
2023-03-10T22:08:37.832Z,99748.38
2023-03-10T22:11:07.126Z,99744.91
2023-03-10T22:13:38.318Z,99754.94
2023-03-10T22:16:07.009Z,99760.13
2023-03-10T22:18:34.143Z,99751.06
2023-03-10T22:21:01.062Z,99744.63
2023-03-10T22:23:28.096Z,99750.25
2023-03-10T22:25:55.495Z,99743.66
2023-03-10T22:28:22.322Z,99748.25
2023-03-10T22:30:49.045Z,99756.91
2023-03-10T22:33:15.730Z,99745.69
2023-03-10T22:35:44.597Z,99747.84
2023-03-10T22:38:11.334Z,99760.44
2023-03-10T22:40:38.117Z,99759.16
2023-03-10T22:43:05.007Z,99761.09
2023-03-10T22:45:33.422Z,99758.69
2023-03-10T22:48:03.638Z,99772.88
2023-03-10T22:50:43.509Z,99761.53
2023-03-10T22:53:17.008Z,99765.44
2023-03-10T22:55:44.041Z,99768.41
2023-03-10T22:58:11.197Z,99774.56
2023-03-10T23:00:39.663Z,99777.84
2023-03-10T23:03:07.521Z,99777.72
2023-03-10T23:05:34.498Z,99776.78
2023-03-10T23:08:01.483Z,99774.00
2023-03-10T23:10:31.369Z,99782.19
2023-03-10T23:13:00.761Z,99796.84
2023-03-10T23:15:30.674Z,99803.25
2023-03-10T23:17:57.881Z,99799.31
2023-03-10T23:20:27.859Z,99807.16
2023-03-10T23:22:57.080Z,99808.81
2023-03-10T23:25:28.804Z,99803.75
2023-03-10T23:27:56.246Z,99805.09
2023-03-10T23:30:23.112Z,99811.28
2023-03-10T23:32:51.297Z,99808.53
2023-03-10T23:35:21.268Z,99814.94
2023-03-10T23:37:47.989Z,99817.19
2023-03-10T23:40:17.052Z,99831.03
2023-03-10T23:42:44.374Z,99828.44
2023-03-10T23:45:15.177Z,99842.81
2023-03-10T23:47:42.475Z,99835.47
2023-03-10T23:50:17.064Z,99829.00
2023-03-10T23:52:44.629Z,99838.91
2023-03-10T23:55:14.830Z,99838.44
2023-03-10T23:57:41.824Z,99837.28
